createdAt,value
2018-10-18T00:00:00.637Z,98303.70
2018-10-18T00:02:32.966Z,98303.91
2018-10-18T00:05:06.956Z,98305.17
2018-10-18T00:07:39.377Z,98301.33
2018-10-18T00:10:11.710Z,98305.57
2018-10-18T00:12:43.991Z,98305.88
2018-10-18T00:15:16.270Z,98307.25
2018-10-18T00:17:48.552Z,98309.23
2018-10-18T00:20:20.792Z,98305.09
2018-10-18T00:22:53.067Z,98300.78
2018-10-18T00:25:25.283Z,98302.44
2018-10-18T00:27:57.580Z,98304.17
2018-10-18T00:30:29.830Z,98304.97
2018-10-18T00:33:02.126Z,98297.49
2018-10-18T00:35:34.493Z,98302.02
2018-10-18T00:38:07.505Z,98300.73
2018-10-18T00:40:39.705Z,98295.92
2018-10-18T00:43:12.222Z,98292.48
2018-10-18T00:45:44.553Z,98293.25
2018-10-18T00:48:16.991Z,98297.99
2018-10-18T00:50:49.160Z,98295.55
2018-10-18T00:53:21.505Z,98286.17
2018-10-18T00:55:53.786Z,98283.83
2018-10-18T00:58:26.049Z,98284.80
2018-10-18T01:00:58.397Z,98284.83
2018-10-18T01:03:30.848Z,98285.70
2018-10-18T01:06:03.404Z,98289.25
2018-10-18T01:08:35.901Z,98285.99
2018-10-18T01:11:08.184Z,98283.15
2018-10-18T01:13:40.473Z,98285.33
2018-10-18T01:16:12.748Z,98285.02
2018-10-18T01:18:45.069Z,98283.47
2018-10-18T01:21:17.593Z,98279.84
2018-10-18T01:23:49.861Z,98285.45
2018-10-18T01:26:22.202Z,98283.47
2018-10-18T01:28:54.518Z,98276.51
2018-10-18T01:31:26.816Z,98285.45
2018-10-18T01:33:59.095Z,98279.55
2018-10-18T01:36:31.390Z,98280.44
2018-10-18T01:39:04.305Z,98280.83
2018-10-18T01:41:36.860Z,98283.97
2018-10-18T01:44:09.409Z,98281.20
2018-10-18T01:46:41.638Z,98275.60
2018-10-18T01:49:13.893Z,98284.35
2018-10-18T01:51:46.168Z,98279.04
2018-10-18T01:54:18.488Z,98279.81
2018-10-18T01:56:50.929Z,98283.45
2018-10-18T01:59:23.181Z,98279.67
2018-10-18T02:01:55.464Z,98275.75
2018-10-18T02:04:27.785Z,98277.23
2018-10-18T02:07:00.046Z,98274.00
2018-10-18T02:09:32.294Z,98276.23
2018-10-18T02:12:05.295Z,98279.19
2018-10-18T02:14:37.797Z,98275.32
2018-10-18T02:17:10.189Z,98282.91
2018-10-18T02:19:42.551Z,98281.14
2018-10-18T02:22:14.823Z,98283.22
2018-10-18T02:24:47.096Z,98279.27
2018-10-18T02:27:19.477Z,98273.56
2018-10-18T02:29:51.725Z,98279.58
2018-10-18T02:32:24.024Z,98282.42
2018-10-18T02:34:56.338Z,98283.98
2018-10-18T02:37:28.685Z,98287.13
2018-10-18T02:40:01.166Z,98286.52
2018-10-18T02:42:33.601Z,98282.89
2018-10-18T02:45:05.981Z,98284.06
2018-10-18T02:47:38.257Z,98275.91
2018-10-18T02:50:10.554Z,98281.98
2018-10-18T02:52:42.833Z,98280.14
2018-10-18T02:55:15.129Z,98276.67
2018-10-18T02:57:47.441Z,98280.78
2018-10-18T03:00:19.737Z,98282.16
2018-10-18T03:02:52.069Z,98285.80
2018-10-18T03:05:24.379Z,98285.47
2018-10-18T03:07:56.686Z,98289.38
2018-10-18T03:10:29.136Z,98284.86
2018-10-18T03:13:01.586Z,98288.83
2018-10-18T03:15:33.933Z,98290.02
2018-10-18T03:18:06.553Z,98290.50
2018-10-18T03:20:38.843Z,98289.17
2018-10-18T03:23:11.201Z,98288.58
2018-10-18T03:25:43.501Z,98288.21
2018-10-18T03:28:15.748Z,98290.97
2018-10-18T03:30:47.999Z,98294.28
2018-10-18T03:33:20.239Z,98292.03
2018-10-18T03:35:52.499Z,98290.16
2018-10-18T03:38:24.883Z,98293.73
2018-10-18T03:40:57.250Z,98295.52
2018-10-18T03:43:29.525Z,98295.52
2018-10-18T03:46:01.818Z,98290.48
2018-10-18T03:48:34.186Z,98297.75
2018-10-18T03:51:06.629Z,98297.35
2018-10-18T03:53:38.874Z,98297.00
2018-10-18T03:56:11.301Z,98297.75
2018-10-18T03:58:43.613Z,98300.09
2018-10-18T04:01:15.872Z,98299.30
2018-10-18T04:03:48.133Z,98291.84
2018-10-18T04:06:20.513Z,98294.84
2018-10-18T04:08:52.791Z,98289.08
2018-10-18T04:11:25.068Z,98290.42
2018-10-18T04:13:57.402Z,98298.21
2018-10-18T04:16:29.713Z,98293.04
2018-10-18T04:19:02.079Z,98293.72
2018-10-18T04:21:34.392Z,98296.66
2018-10-18T04:24:06.756Z,98301.11
2018-10-18T04:26:38.915Z,98293.38
2018-10-18T04:29:11.540Z,98298.67
2018-10-18T04:31:43.804Z,98296.42
2018-10-18T04:34:16.165Z,98301.04
2018-10-18T04:36:48.510Z,98298.44
2018-10-18T04:39:20.781Z,98298.83
2018-10-18T04:41:53.240Z,98301.91
2018-10-18T04:44:25.686Z,98303.54
2018-10-18T04:46:57.923Z,98306.80
2018-10-18T04:49:30.263Z,98305.12
2018-10-18T04:52:02.589Z,98309.04
2018-10-18T04:54:34.890Z,98307.56
2018-10-18T04:57:07.480Z,98302.66
2018-10-18T04:59:39.744Z,98304.25
2018-10-18T05:02:12.018Z,98307.08
2018-10-18T05:04:55.713Z,98307.28
2018-10-18T05:07:27.907Z,98313.52
2018-10-18T05:10:00.199Z,98311.91
2018-10-18T05:12:32.487Z,98311.89
2018-10-18T05:15:06.377Z,98309.76
2018-10-18T05:17:45.363Z,98320.63
2018-10-18T05:20:17.874Z,98322.03
2018-10-18T05:22:50.122Z,98328.55
2018-10-18T05:25:22.503Z,98318.69
2018-10-18T05:27:54.815Z,98319.94
2018-10-18T05:30:27.153Z,98324.22
2018-10-18T05:32:59.461Z,98330.20
2018-10-18T05:35:31.699Z,98332.87
2018-10-18T05:38:04.509Z,98335.21
2018-10-18T05:40:36.761Z,98332.36
2018-10-18T05:43:09.090Z,98337.67
2018-10-18T05:45:41.393Z,98335.82
2018-10-18T05:48:13.832Z,98332.87
2018-10-18T05:50:46.193Z,98338.06
2018-10-18T05:53:18.717Z,98341.95
2018-10-18T05:55:50.932Z,98346.05
2018-10-18T05:58:23.261Z,98349.14
2018-10-18T06:00:55.643Z,98355.46
2018-10-18T06:03:27.933Z,98362.87
2018-10-18T06:06:00.309Z,98357.09
2018-10-18T06:08:32.598Z,98363.69
2018-10-18T06:11:30.065Z,98371.61
2018-10-18T06:14:02.498Z,98370.27
2018-10-18T06:16:34.882Z,98367.84
2018-10-18T06:19:07.232Z,98372.92
2018-10-18T06:21:39.506Z,98375.69
2018-10-18T06:24:11.826Z,98377.78
2018-10-18T06:26:44.106Z,98379.59
2018-10-18T06:29:16.597Z,98383.78
2018-10-18T06:31:48.990Z,98387.84
2018-10-18T06:34:21.238Z,98385.28
2018-10-18T06:36:53.548Z,98382.91
2018-10-18T06:39:25.820Z,98385.63
2018-10-18T06:41:58.902Z,98395.69
2018-10-18T06:44:31.198Z,98399.00
2018-10-18T06:47:03.814Z,98391.35
2018-10-18T06:49:36.196Z,98393.02
2018-10-18T06:52:08.457Z,98399.69
2018-10-18T06:54:40.760Z,98386.59
2018-10-18T06:57:13.195Z,98394.08
2018-10-18T06:59:45.528Z,98395.92
2018-10-18T07:02:17.790Z,98392.75
2018-10-18T07:04:50.043Z,98392.98
2018-10-18T07:07:22.378Z,98391.27
2018-10-18T07:09:54.626Z,98388.90
2018-10-18T07:12:26.957Z,98395.46
2018-10-18T07:14:59.217Z,98384.48
2018-10-18T07:17:31.610Z,98390.01
2018-10-18T07:20:04.261Z,98391.36
2018-10-18T07:22:37.573Z,98397.91
2018-10-18T07:25:11.328Z,98388.09
2018-10-18T07:27:43.761Z,98400.09
2018-10-18T07:30:16.282Z,98409.52
2018-10-18T07:32:48.480Z,98407.54
2018-10-18T07:35:20.757Z,98406.69
2018-10-18T07:37:53.094Z,98408.19
2018-10-18T07:40:25.456Z,98408.35
2018-10-18T07:42:57.774Z,98414.03
2018-10-18T07:45:30.069Z,98408.70
2018-10-18T07:48:02.474Z,98416.09
2018-10-18T07:50:34.714Z,98421.45
2018-10-18T07:53:07.097Z,98417.71
2018-10-18T07:55:39.371Z,98420.79
2018-10-18T07:58:11.703Z,98419.23
2018-10-18T08:00:44.123Z,98419.23
2018-10-18T08:03:16.361Z,98413.02
2018-10-18T08:05:48.718Z,98419.94
2018-10-18T08:08:21.021Z,98415.98
2018-10-18T08:10:53.330Z,98418.72
2018-10-18T08:13:25.641Z,98408.59
2018-10-18T08:15:58.017Z,98410.03
2018-10-18T08:18:30.384Z,98397.33
2018-10-18T08:21:02.788Z,98406.31
2018-10-18T08:23:35.078Z,98406.86
2018-10-18T08:26:07.488Z,98403.03
2018-10-18T08:28:39.803Z,98402.97
2018-10-18T08:31:12.239Z,98407.70
2018-10-18T08:33:44.414Z,98403.92
2018-10-18T08:36:16.805Z,98404.06
2018-10-18T08:38:49.103Z,98405.12
2018-10-18T08:41:21.401Z,98393.48
2018-10-18T08:43:53.736Z,98398.58
2018-10-18T08:46:26.329Z,98402.94
2018-10-18T08:48:58.638Z,98403.40
2018-10-18T08:51:31.345Z,98411.03
2018-10-18T08:54:03.632Z,98410.91
2018-10-18T08:56:35.948Z,98403.55
2018-10-18T08:59:08.292Z,98410.47
2018-10-18T09:01:40.598Z,98412.25
2018-10-18T09:04:12.922Z,98406.38
2018-10-18T09:06:45.200Z,98398.98
2018-10-18T09:09:17.766Z,98410.83
2018-10-18T09:11:49.878Z,98399.43
2018-10-18T09:14:22.179Z,98397.96
2018-10-18T09:16:54.490Z,98400.64
2018-10-18T09:19:26.737Z,98401.09
2018-10-18T09:21:59.029Z,98398.63
2018-10-18T09:24:31.309Z,98398.18
2018-10-18T09:27:03.636Z,98394.80
2018-10-18T09:29:35.949Z,98389.70
2018-10-18T09:32:08.557Z,98383.12
2018-10-18T09:34:40.839Z,98391.66
2018-10-18T09:37:13.222Z,98389.94
2018-10-18T09:39:45.442Z,98387.27
2018-10-18T09:42:17.714Z,98379.56
2018-10-18T09:44:50.170Z,98378.66
2018-10-18T09:47:22.430Z,98383.73
2018-10-18T09:49:54.733Z,98381.38
2018-10-18T09:52:27.049Z,98382.08
2018-10-18T09:54:59.360Z,98378.62
2018-10-18T09:57:31.618Z,98374.84
2018-10-18T10:00:04.265Z,98377.82
2018-10-18T10:02:42.069Z,98375.25
2018-10-18T10:05:14.369Z,98374.94
2018-10-18T10:07:46.630Z,98367.33
2018-10-18T10:10:19.022Z,98373.19
2018-10-18T10:12:51.308Z,98369.35
2018-10-18T10:15:23.805Z,98364.00
2018-10-18T10:17:56.114Z,98360.20
2018-10-18T10:20:28.433Z,98360.74
2018-10-18T10:23:00.797Z,98355.67
2018-10-18T10:25:33.085Z,98352.77
2018-10-18T10:28:05.417Z,98348.72
2018-10-18T10:30:37.748Z,98347.14
2018-10-18T10:33:10.101Z,98344.31
2018-10-18T10:35:42.450Z,98335.31
2018-10-18T10:38:14.797Z,98334.46
2018-10-18T10:40:47.121Z,98337.41
2018-10-18T10:43:19.485Z,98336.64
2018-10-18T10:45:51.939Z,98334.09
2018-10-18T10:48:24.113Z,98335.50
2018-10-18T10:50:56.433Z,98326.68
2018-10-18T10:53:28.675Z,98322.95
2018-10-18T10:56:01.049Z,98322.72
2018-10-18T10:58:33.537Z,98317.40
2018-10-18T11:01:25.147Z,98315.50
2018-10-18T11:03:58.907Z,98312.41
2018-10-18T11:06:31.180Z,98302.58
2018-10-18T11:09:04.772Z,98298.23
2018-10-18T11:11:37.189Z,98297.69
2018-10-18T11:14:09.503Z,98293.05
2018-10-18T11:16:41.782Z,98294.84
2018-10-18T11:19:14.078Z,98288.97
2018-10-18T11:21:46.397Z,98286.87
2018-10-18T11:24:18.864Z,98290.94
2018-10-18T11:26:51.316Z,98287.95
2018-10-18T11:29:23.776Z,98294.52
2018-10-18T11:31:56.087Z,98284.16
2018-10-18T11:34:28.406Z,98284.17
2018-10-18T11:37:00.782Z,98277.73
2018-10-18T11:39:33.105Z,98279.58
2018-10-18T11:42:05.735Z,98280.50
2018-10-18T11:44:40.014Z,98285.75
2018-10-18T11:47:12.313Z,98281.05
2018-10-18T11:49:44.605Z,98277.84
2018-10-18T11:52:16.940Z,98280.09
2018-10-18T11:54:49.251Z,98280.30
2018-10-18T11:57:21.519Z,98274.91
2018-10-18T11:59:53.883Z,98273.00
2018-10-18T12:02:26.222Z,98273.56
2018-10-18T12:04:58.515Z,98271.52
2018-10-18T12:07:30.903Z,98267.12
2018-10-18T12:10:03.257Z,98266.47
2018-10-18T12:12:35.743Z,98260.72
2018-10-18T12:15:10.391Z,98261.42
2018-10-18T12:17:42.820Z,98257.31
2018-10-18T12:20:16.482Z,98258.40
2018-10-18T12:22:48.718Z,98249.22
2018-10-18T12:25:20.980Z,98246.19
2018-10-18T12:27:53.335Z,98243.59
2018-10-18T12:30:25.625Z,98242.76
2018-10-18T12:32:57.962Z,98236.59
2018-10-18T12:35:30.457Z,98237.83
2018-10-18T12:38:02.757Z,98233.50
2018-10-18T12:40:35.291Z,98237.22
2018-10-18T12:43:07.445Z,98236.10
2018-10-18T12:45:39.729Z,98236.59
2018-10-18T12:48:12.085Z,98235.77
2018-10-18T12:50:44.490Z,98228.01
2018-10-18T12:53:16.742Z,98224.81
2018-10-18T12:55:49.072Z,98232.23
2018-10-18T12:58:21.414Z,98233.36
2018-10-18T13:00:53.698Z,98233.31
2018-10-18T13:03:26.136Z,98231.86
2018-10-18T13:05:58.402Z,98238.58
2018-10-18T13:08:30.670Z,98227.29
2018-10-18T13:11:03.237Z,98225.39
2018-10-18T13:13:36.525Z,98228.16
2018-10-18T13:16:08.787Z,98221.98
2018-10-18T13:18:41.194Z,98225.92
2018-10-18T13:21:13.831Z,98219.36
2018-10-18T13:23:46.191Z,98217.87
2018-10-18T13:26:18.629Z,98218.17
2018-10-18T13:28:50.923Z,98211.56
2018-10-18T13:31:23.549Z,98218.17
2018-10-18T13:33:55.990Z,98213.36
2018-10-18T13:36:29.474Z,98216.67
2018-10-18T13:39:01.943Z,98220.39
2018-10-18T13:41:34.254Z,98221.58
2018-10-18T13:44:07.133Z,98216.27
2018-10-18T13:46:39.886Z,98224.86
2018-10-18T13:49:12.210Z,98221.59
2018-10-18T13:51:44.658Z,98225.39
2018-10-18T13:54:17.076Z,98220.25
2018-10-18T13:56:49.391Z,98219.42
2018-10-18T13:59:33.144Z,98216.72
2018-10-18T14:02:05.394Z,98210.59
2018-10-18T14:04:37.866Z,98221.02
2018-10-18T14:07:10.258Z,98220.20
2018-10-18T14:09:42.542Z,98210.98
2018-10-18T14:12:14.965Z,98212.14
2018-10-18T14:14:47.289Z,98208.76
2018-10-18T14:17:19.739Z,98217.44
2018-10-18T14:19:52.013Z,98219.06
2018-10-18T14:22:24.335Z,98212.08
2018-10-18T14:24:56.721Z,98216.75
2018-10-18T14:27:29.556Z,98211.50
2018-10-18T14:30:02.037Z,98216.27
2018-10-18T14:32:34.326Z,98213.71
2018-10-18T14:35:08.281Z,98209.43
2018-10-18T14:37:40.712Z,98213.09
2018-10-18T14:40:13.041Z,98211.70
2018-10-18T14:42:45.418Z,98209.53
2018-10-18T14:45:17.804Z,98206.44
2018-10-18T14:47:50.247Z,98211.75
2018-10-18T14:50:23.024Z,98208.56
2018-10-18T14:52:55.280Z,98212.09
2018-10-18T14:55:27.623Z,98214.69
2018-10-18T14:58:00.011Z,98217.99
2018-10-18T15:00:32.306Z,98218.70
2018-10-18T15:03:04.953Z,98220.12
2018-10-18T15:05:37.353Z,98218.48
2018-10-18T15:08:09.669Z,98223.30
2018-10-18T15:10:42.017Z,98220.81
2018-10-18T15:13:14.517Z,98222.16
2018-10-18T15:15:46.842Z,98219.84
2018-10-18T15:18:19.138Z,98216.27
2018-10-18T15:20:51.445Z,98228.07
2018-10-18T15:23:23.890Z,98223.58
2018-10-18T15:25:56.403Z,98224.03
2018-10-18T15:28:28.707Z,98226.38
2018-10-18T15:31:01.063Z,98231.53
2018-10-18T15:33:33.400Z,98231.70
2018-10-18T15:36:05.764Z,98231.46
2018-10-18T15:38:38.304Z,98231.91
2018-10-18T15:41:10.842Z,98236.95
2018-10-18T15:43:43.216Z,98233.81
2018-10-18T15:46:15.615Z,98234.06
2018-10-18T15:48:47.955Z,98234.35
2018-10-18T15:51:20.373Z,98241.52
2018-10-18T15:53:52.721Z,98234.47
2018-10-18T15:56:25.199Z,98237.23
2018-10-18T15:58:57.644Z,98250.39
2018-10-18T16:01:29.996Z,98255.79
2018-10-18T16:04:02.494Z,98253.94
2018-10-18T16:06:34.989Z,98256.30
2018-10-18T16:09:09.261Z,98259.97
2018-10-18T16:11:42.004Z,98271.43
2018-10-18T16:14:14.733Z,98276.52
2018-10-18T16:16:47.129Z,98279.06
2018-10-18T16:19:19.545Z,98276.67
2018-10-18T16:21:52.066Z,98282.36
2018-10-18T16:24:24.575Z,98282.85
2018-10-18T16:26:56.797Z,98292.52
2018-10-18T16:29:29.111Z,98299.17
2018-10-18T16:32:01.711Z,98301.48
2018-10-18T16:34:34.103Z,98305.31
2018-10-18T16:37:06.528Z,98313.27
2018-10-18T16:39:39.071Z,98310.34
2018-10-18T16:42:11.679Z,98317.01
2018-10-18T16:44:44.173Z,98313.90
2018-10-18T16:47:16.498Z,98316.19
2018-10-18T16:49:48.935Z,98325.09
2018-10-18T16:52:21.283Z,98323.35
2018-10-18T16:54:53.638Z,98327.86
2018-10-18T16:57:26.009Z,98328.70
2018-10-18T16:59:58.359Z,98333.95
2018-10-18T17:02:30.740Z,98341.16
2018-10-18T17:05:03.168Z,98349.26
2018-10-18T17:07:35.832Z,98349.88
2018-10-18T17:10:08.242Z,98350.52
2018-10-18T17:12:40.493Z,98355.59
2018-10-18T17:15:12.987Z,98358.75
2018-10-18T17:17:45.565Z,98364.31
2018-10-18T17:20:18.145Z,98369.35
2018-10-18T17:22:50.401Z,98375.51
2018-10-18T17:25:22.776Z,98374.77
2018-10-18T17:27:55.133Z,98368.30
2018-10-18T17:30:27.551Z,98375.82
2018-10-18T17:32:59.881Z,98371.38
2018-10-18T17:35:32.217Z,98370.13
2018-10-18T17:38:06.272Z,98372.35
2018-10-18T17:40:38.593Z,98371.50
2018-10-18T17:43:11.074Z,98373.34
2018-10-18T17:45:43.412Z,98372.50
2018-10-18T17:48:15.875Z,98374.99
2018-10-18T17:50:48.374Z,98372.25
2018-10-18T17:53:20.786Z,98375.83
2018-10-18T17:55:53.119Z,98373.25
2018-10-18T17:58:25.562Z,98377.66
2018-10-18T18:00:58.049Z,98382.25
2018-10-18T18:03:30.763Z,98379.90
2018-10-18T18:06:03.303Z,98382.36
2018-10-18T18:08:35.679Z,98386.34
2018-10-18T18:11:08.081Z,98385.77
2018-10-18T18:13:40.507Z,98388.46
2018-10-18T18:16:12.943Z,98393.84
2018-10-18T18:18:45.596Z,98396.65
2018-10-18T18:21:17.996Z,98397.81
2018-10-18T18:23:50.355Z,98402.94
2018-10-18T18:26:32.447Z,98413.90
2018-10-18T18:28:55.268Z,98417.98
2018-10-18T18:31:27.691Z,98416.03
2018-10-18T18:34:00.141Z,98412.28
2018-10-18T18:36:32.670Z,98416.16
2018-10-18T18:39:07.109Z,98416.09
2018-10-18T18:41:40.697Z,98417.72
2018-10-18T18:44:13.147Z,98422.70
2018-10-18T18:46:45.607Z,98425.83
2018-10-18T18:49:18.049Z,98427.33
2018-10-18T18:51:50.472Z,98427.27
2018-10-18T18:54:23.127Z,98430.14
2018-10-18T18:56:55.523Z,98431.08
2018-10-18T18:59:27.941Z,98438.79
2018-10-18T19:02:00.283Z,98437.15
2018-10-18T19:04:32.655Z,98440.66
2018-10-18T19:07:05.074Z,98440.27
2018-10-18T19:09:37.571Z,98428.53
2018-10-18T19:12:10.014Z,98432.69
2018-10-18T19:14:42.434Z,98441.75
2018-10-18T19:17:14.748Z,98442.45
2018-10-18T19:19:47.198Z,98442.89
2018-10-18T19:22:19.782Z,98445.33
2018-10-18T19:24:52.873Z,98446.80
2018-10-18T19:27:25.296Z,98459.24
2018-10-18T19:29:57.642Z,98450.99
2018-10-18T19:32:30.089Z,98458.98
2018-10-18T19:35:02.512Z,98453.30
2018-10-18T19:37:35.224Z,98457.53
2018-10-18T19:40:08.218Z,98459.23
2018-10-18T19:42:40.608Z,98459.97
2018-10-18T19:45:13.006Z,98462.30
2018-10-18T19:47:45.595Z,98460.39
2018-10-18T19:50:18.102Z,98466.58
2018-10-18T19:52:50.539Z,98461.85
2018-10-18T19:55:22.974Z,98460.41
2018-10-18T19:57:55.659Z,98474.06
2018-10-18T20:00:28.230Z,98471.80
2018-10-18T20:03:00.557Z,98468.61
2018-10-18T20:05:32.921Z,98470.05
2018-10-18T20:08:05.476Z,98468.92
2018-10-18T20:10:37.846Z,98473.27
2018-10-18T20:13:10.519Z,98473.02
2018-10-18T20:15:42.932Z,98475.28
2018-10-18T20:18:15.434Z,98476.72
2018-10-18T20:20:47.682Z,98481.55
2018-10-18T20:23:20.001Z,98475.91
2018-10-18T20:25:52.803Z,98485.70
2018-10-18T20:28:25.021Z,98477.67
2018-10-18T20:30:57.367Z,98484.50
2018-10-18T20:33:29.692Z,98487.47
2018-10-18T20:36:02.177Z,98489.03
2018-10-18T20:38:34.662Z,98481.95
2018-10-18T20:41:07.086Z,98490.54
2018-10-18T20:43:39.539Z,98487.53
2018-10-18T20:46:11.882Z,98492.23
2018-10-18T20:48:44.231Z,98495.08
2018-10-18T20:51:16.596Z,98498.66
2018-10-18T20:53:48.935Z,98511.23
2018-10-18T20:56:21.245Z,98508.32
2018-10-18T20:58:53.562Z,98504.47
2018-10-18T21:01:25.870Z,98508.63
2018-10-18T21:03:58.178Z,98512.80
2018-10-18T21:06:30.763Z,98515.91
2018-10-18T21:09:03.802Z,98518.80
2018-10-18T21:11:36.197Z,98523.36
2018-10-18T21:14:08.466Z,98528.45
2018-10-18T21:16:40.789Z,98531.23
2018-10-18T21:19:13.046Z,98523.50
2018-10-18T21:21:45.402Z,98533.70
2018-10-18T21:24:17.721Z,98524.66
2018-10-18T21:26:50.224Z,98516.67
2018-10-18T21:29:22.518Z,98514.16
2018-10-18T21:31:54.933Z,98521.45
2018-10-18T21:34:27.269Z,98522.15
2018-10-18T21:36:59.598Z,98522.15
2018-10-18T21:39:33.166Z,98516.14
2018-10-18T21:42:05.509Z,98514.97
2018-10-18T21:44:37.932Z,98518.52
2018-10-18T21:47:11.121Z,98522.77
2018-10-18T21:49:43.546Z,98519.58
2018-10-18T21:52:16.006Z,98524.45
2018-10-18T21:54:48.294Z,98523.88
2018-10-18T21:57:20.690Z,98521.42
2018-10-18T21:59:52.999Z,98523.69
2018-10-18T22:02:25.335Z,98522.70
2018-10-18T22:04:57.630Z,98529.37
2018-10-18T22:07:29.901Z,98528.86
2018-10-18T22:10:02.253Z,98533.04
2018-10-18T22:12:34.747Z,98533.33
2018-10-18T22:15:08.640Z,98528.72
2018-10-18T22:17:41.063Z,98529.59
2018-10-18T22:20:13.369Z,98528.75
2018-10-18T22:22:45.686Z,98525.09
2018-10-18T22:25:18.028Z,98527.76
2018-10-18T22:27:50.361Z,98519.00
2018-10-18T22:30:22.677Z,98520.69
2018-10-18T22:32:55.081Z,98513.21
2018-10-18T22:35:27.346Z,98514.57
2018-10-18T22:37:59.686Z,98520.73
2018-10-18T22:40:32.023Z,98513.26
2018-10-18T22:43:04.649Z,98506.75
2018-10-18T22:45:36.970Z,98498.29
2018-10-18T22:48:09.285Z,98501.62
2018-10-18T22:50:41.708Z,98505.28
2018-10-18T22:53:14.222Z,98506.64
2018-10-18T22:55:46.413Z,98505.36
2018-10-18T22:58:18.734Z,98511.28
2018-10-18T23:00:51.022Z,98510.77
2018-10-18T23:03:23.329Z,98509.41
2018-10-18T23:05:55.604Z,98509.60
2018-10-18T23:08:27.894Z,98509.41
2018-10-18T23:11:00.236Z,98503.98
2018-10-18T23:13:32.564Z,98497.19
2018-10-18T23:16:04.937Z,98497.89
2018-10-18T23:18:37.242Z,98494.54
2018-10-18T23:21:09.657Z,98495.51
2018-10-18T23:23:41.961Z,98477.28
2018-10-18T23:26:14.214Z,98490.27
2018-10-18T23:28:46.498Z,98497.48
2018-10-18T23:31:18.943Z,98496.11
2018-10-18T23:33:51.272Z,98497.38
2018-10-18T23:36:23.809Z,98498.48
2018-10-18T23:38:56.206Z,98496.42
2018-10-18T23:41:28.484Z,98492.66
2018-10-18T23:44:00.914Z,98502.91
2018-10-18T23:46:33.365Z,98500.92
2018-10-18T23:49:05.690Z,98500.92
2018-10-18T23:51:38.013Z,98506.44
2018-10-18T23:54:10.270Z,98508.13
2018-10-18T23:56:42.598Z,98506.55
2018-10-18T23:59:15.011Z,98505.57
